createdAt,value
2015-11-06T00:00:03.101Z,97.3
2015-11-06T00:01:03.041Z,97
2015-11-06T00:02:02.996Z,97
2015-11-06T00:03:02.954Z,97.7
2015-11-06T00:04:02.893Z,97.9
2015-11-06T00:05:02.834Z,97.3
2015-11-06T00:06:02.790Z,98
2015-11-06T00:07:02.745Z,97.4
2015-11-06T00:08:02.685Z,97.1
2015-11-06T00:09:02.641Z,97.2
2015-11-06T00:10:02.440Z,97.4
2015-11-06T00:11:02.772Z,97
2015-11-06T00:12:02.493Z,96.8
2015-11-06T00:13:02.433Z,97.4
2015-11-06T00:14:02.390Z,97.5
2015-11-06T00:15:02.329Z,97
2015-11-06T00:16:02.504Z,96.7
2015-11-06T00:17:02.242Z,97.2
2015-11-06T00:18:02.181Z,96.5
2015-11-06T00:19:02.137Z,96.8
2015-11-06T00:20:02.061Z,96.3
2015-11-06T00:21:02.033Z,96.9
2015-11-06T00:22:01.973Z,97.4
2015-11-06T00:23:01.914Z,96.9
2015-11-06T00:24:01.870Z,96.7
2015-11-06T00:25:01.826Z,96.8
2015-11-06T00:26:02.000Z,97.3
2015-11-06T00:27:01.722Z,96.7
2015-11-06T00:28:01.661Z,96.5
2015-11-06T00:29:01.852Z,96.5
2015-11-06T00:30:01.558Z,96.1
2015-11-06T00:31:01.514Z,96.1
2015-11-06T00:32:01.453Z,96.7
2015-11-06T00:33:01.410Z,97
2015-11-06T00:34:01.350Z,96.2
2015-11-06T00:35:01.306Z,95.5
2015-11-06T00:36:01.261Z,95.9
2015-11-06T00:37:01.202Z,95.7
2015-11-06T00:38:01.158Z,95.7
2015-11-06T00:39:01.097Z,95.7
2015-11-06T00:40:01.288Z,95.5
2015-11-06T00:41:00.994Z,95.2
2015-11-06T00:42:00.949Z,95.5
2015-11-06T00:43:00.890Z,95.8
2015-11-06T00:44:01.080Z,96
2015-11-06T00:45:00.786Z,95.5
2015-11-06T00:46:00.741Z,96.3
2015-11-06T00:47:00.698Z,95.6
2015-11-06T00:48:00.654Z,95.6
2015-11-06T00:49:00.579Z,96.1
2015-11-06T00:50:00.534Z,95.9
2015-11-06T00:51:00.490Z,95.1
2015-11-06T00:52:00.446Z,95.3
2015-11-06T00:53:00.386Z,95.8
2015-11-06T00:54:00.326Z,95.7
2015-11-06T00:55:00.282Z,96
2015-11-06T00:56:00.238Z,96
2015-11-06T00:57:00.178Z,96.3
2015-11-06T00:58:00.130Z,96
2015-11-06T00:59:00.070Z,96.4
2015-11-06T01:00:00.026Z,96.3
2015-11-06T01:00:59.967Z,96.3
2015-11-06T01:01:59.922Z,96
2015-11-06T01:02:59.878Z,96.1
2015-11-06T01:03:59.819Z,95.8
2015-11-06T01:04:59.774Z,95.8
2015-11-06T01:05:59.714Z,95.8
2015-11-06T01:06:59.671Z,95.6
2015-11-06T01:07:59.610Z,95.9
2015-11-06T01:08:59.566Z,95.8
2015-11-06T01:09:59.522Z,95.9
2015-11-06T01:10:59.463Z,95.8
2015-11-06T01:11:59.418Z,95.7
2015-11-06T01:12:59.357Z,95.7
2015-11-06T01:13:59.314Z,96
2015-11-06T01:14:59.251Z,96.2
2015-11-06T01:15:59.207Z,96.1
2015-11-06T01:16:59.148Z,95.7
2015-11-06T01:17:59.104Z,95.4
2015-11-06T01:18:59.043Z,95.4
2015-11-06T01:19:58.999Z,95.3
2015-11-06T01:20:58.956Z,95.5
2015-11-06T01:21:58.895Z,95.6
2015-11-06T01:22:58.852Z,95.7
2015-11-06T01:23:58.792Z,95.6
2015-11-06T01:24:58.748Z,95.7
2015-11-06T01:25:58.688Z,95.6
2015-11-06T01:26:58.643Z,95.8
2015-11-06T01:27:58.583Z,96.3
2015-11-06T01:28:58.540Z,96.3
2015-11-06T01:29:58.496Z,96.9
2015-11-06T01:30:58.435Z,96
2015-11-06T01:31:58.392Z,96
2015-11-06T01:32:58.331Z,95.9
2015-11-06T01:33:58.288Z,96.2
2015-11-06T01:34:58.228Z,97
2015-11-06T01:35:58.184Z,97
2015-11-06T01:36:58.139Z,96
2015-11-06T01:37:58.080Z,95.9
2015-11-06T01:38:58.036Z,96.3
2015-11-06T01:39:58.210Z,95.8
2015-11-06T01:40:57.931Z,95.9
2015-11-06T01:41:57.872Z,95.3
2015-11-06T01:42:57.828Z,96.1
2015-11-06T01:43:57.783Z,95.8
2015-11-06T01:44:57.724Z,96.3
2015-11-06T01:45:57.679Z,96.1
2015-11-06T01:46:57.619Z,95.5
2015-11-06T01:47:57.575Z,95.3
2015-11-06T01:48:57.516Z,95.2
2015-11-06T01:49:57.472Z,95.7
2015-11-06T01:50:57.428Z,97.1
2015-11-06T01:51:57.383Z,96.7
2015-11-06T01:52:57.324Z,96.5
2015-11-06T01:53:57.263Z,96.9
2015-11-06T01:54:57.219Z,97.5
2015-11-06T01:55:57.160Z,97.4
2015-11-06T01:56:57.116Z,97.7
2015-11-06T01:57:57.056Z,97.7
2015-11-06T01:58:57.027Z,97.9
2015-11-06T01:59:56.952Z,97.5
2015-11-06T02:00:56.908Z,97.3
2015-11-06T02:01:56.848Z,96.9
2015-11-06T02:02:56.804Z,96.5
2015-11-06T02:03:56.760Z,97
2015-11-06T02:04:56.701Z,96.1
2015-11-06T02:05:56.657Z,96.2
2015-11-06T02:06:56.612Z,96.1
2015-11-06T02:07:56.551Z,96.2
2015-11-06T02:08:56.493Z,96.2
2015-11-06T02:09:56.464Z,95.9
2015-11-06T02:10:56.388Z,96
2015-11-06T02:11:56.360Z,95.9
2015-11-06T02:12:56.301Z,96.3
2015-11-06T02:13:56.475Z,96.3
2015-11-06T02:14:56.196Z,95.9
2015-11-06T02:15:56.136Z,95.7
2015-11-06T02:16:56.092Z,95.4
2015-11-06T02:17:56.048Z,95.9
2015-11-06T02:18:55.973Z,96.3
2015-11-06T02:19:55.928Z,95.4
2015-11-06T02:20:55.869Z,95.9
2015-11-06T02:21:55.825Z,95.9
2015-11-06T02:22:55.765Z,95.9
2015-11-06T02:23:55.706Z,96.3
2015-11-06T02:24:55.661Z,96.2
2015-11-06T02:25:55.601Z,96.2
2015-11-06T02:26:54.822Z,96.3
2015-11-06T02:27:55.513Z,96.2
2015-11-06T02:28:55.453Z,95.9
2015-11-06T02:29:55.409Z,96.1
2015-11-06T02:30:55.365Z,96.2
2015-11-06T02:31:55.539Z,96.3
2015-11-06T02:32:54.508Z,96.2
2015-11-06T02:33:55.197Z,96
2015-11-06T02:34:55.139Z,95.6
2015-11-06T02:35:55.094Z,96
2015-11-06T02:36:55.035Z,96.4
2015-11-06T02:37:54.991Z,97.1
2015-11-06T02:38:54.946Z,96.9
2015-11-06T02:39:54.902Z,96.9
2015-11-06T02:40:54.842Z,97.3
2015-11-06T02:41:54.782Z,97.2
2015-11-06T02:42:53.988Z,96.9
2015-11-06T02:43:54.694Z,96.9
2015-11-06T02:44:54.634Z,97.3
2015-11-06T02:45:54.590Z,97.3
2015-11-06T02:46:54.530Z,96.8
2015-11-06T02:47:54.486Z,96.8
2015-11-06T02:48:54.427Z,96.7
2015-11-06T02:49:54.367Z,96.9
2015-11-06T02:50:54.323Z,96.5
2015-11-06T02:51:54.278Z,96.3
2015-11-06T02:52:54.218Z,95.9
2015-11-06T02:53:54.175Z,96.2
2015-11-06T02:54:54.115Z,96.1
2015-11-06T02:55:54.087Z,95.6
2015-11-06T02:56:54.026Z,95.9
2015-11-06T02:57:53.232Z,96
2015-11-06T02:58:53.923Z,95.9
2015-11-06T02:59:53.862Z,96.3
2015-11-06T03:00:53.818Z,96.3
2015-11-06T03:01:53.759Z,96.1
2015-11-06T03:02:53.715Z,96.5
2015-11-06T03:03:53.671Z,97.3
2015-11-06T03:04:53.611Z,98.1
2015-11-06T03:05:53.567Z,97
2015-11-06T03:06:53.507Z,96.2
2015-11-06T03:07:53.448Z,96.2
2015-11-06T03:08:53.403Z,96.1
2015-11-06T03:09:53.359Z,95.4
2015-11-06T03:10:53.298Z,96
2015-11-06T03:11:53.239Z,95.9
2015-11-06T03:12:53.211Z,95.7
2015-11-06T03:13:53.151Z,95.8
2015-11-06T03:14:53.091Z,95.9
2015-11-06T03:15:53.062Z,96.6
2015-11-06T03:16:53.003Z,96.3
2015-11-06T03:17:52.943Z,96.1
2015-11-06T03:18:52.900Z,96.7
2015-11-06T03:19:52.839Z,97
2015-11-06T03:20:52.811Z,96.6
2015-11-06T03:21:52.735Z,96.2
2015-11-06T03:22:52.691Z,96.5
2015-11-06T03:23:52.647Z,96.3
2015-11-06T03:24:52.587Z,96
2015-11-06T03:25:52.527Z,95.7
2015-11-06T03:26:52.483Z,95.5
2015-11-06T03:27:52.424Z,96.1
2015-11-06T03:28:52.379Z,96.3
2015-11-06T03:29:52.336Z,96.1
2015-11-06T03:30:52.291Z,96.2
2015-11-06T03:31:52.231Z,95.7
2015-11-06T03:32:52.171Z,95.3
2015-11-06T03:33:52.127Z,94.7
2015-11-06T03:34:52.083Z,95.1
2015-11-06T03:35:52.258Z,95.2
2015-11-06T03:36:51.979Z,94.3
2015-11-06T03:37:51.919Z,95.5
2015-11-06T03:38:51.891Z,95.4
2015-11-06T03:39:51.816Z,95.7
2015-11-06T03:40:51.755Z,96.2
2015-11-06T03:41:51.712Z,96.1
2015-11-06T03:42:51.668Z,96
2015-11-06T03:43:51.608Z,95.5
2015-11-06T03:44:51.546Z,96
2015-11-06T03:45:51.516Z,96
2015-11-06T03:46:51.441Z,96.7
2015-11-06T03:47:51.397Z,97.3
2015-11-06T03:48:51.337Z,97.7
2015-11-06T03:49:51.293Z,98
2015-11-06T03:50:51.233Z,97.7
2015-11-06T03:51:51.189Z,97.5
2015-11-06T03:52:51.145Z,97.5
2015-11-06T03:53:51.085Z,97.2
2015-11-06T03:54:51.041Z,97.6
2015-11-06T03:55:50.974Z,97.8
2015-11-06T03:56:50.917Z,97.7
2015-11-06T03:57:50.860Z,97.7
2015-11-06T03:58:50.787Z,97.7
2015-11-06T03:59:50.714Z,97.6
2015-11-06T04:00:50.663Z,97.7
2015-11-06T04:01:50.599Z,97.5
2015-11-06T04:02:50.551Z,97.4
2015-11-06T04:03:50.486Z,97.5
2015-11-06T04:04:50.439Z,97.9
2015-11-06T04:05:50.376Z,98.2
2015-11-06T04:06:50.335Z,98.7
2015-11-06T04:07:50.278Z,98.1
2015-11-06T04:08:50.436Z,98.2
2015-11-06T04:09:50.171Z,98.3
2015-11-06T04:10:50.251Z,97.8
2015-11-06T04:11:50.067Z,97.8
2015-11-06T04:12:50.099Z,97.8
2015-11-06T04:13:50.039Z,97.5
2015-11-06T04:14:49.915Z,97.4
2015-11-06T04:15:49.981Z,97.1
2015-11-06T04:16:49.655Z,97.4
2015-11-06T04:17:49.751Z,97.4
2015-11-06T04:18:49.722Z,97.5
2015-11-06T04:19:49.662Z,97.2
2015-11-06T04:20:49.602Z,97.3
2015-11-06T04:21:49.557Z,97.4
2015-11-06T04:22:49.639Z,97.2
2015-11-06T04:23:49.454Z,97
2015-11-06T04:24:49.629Z,97
2015-11-06T04:25:49.350Z,96.9
2015-11-06T04:26:49.290Z,96.6
2015-11-06T04:27:49.731Z,96.7
2015-11-06T04:28:49.265Z,96.6
2015-11-06T04:29:49.126Z,96.7
2015-11-06T04:30:49.082Z,96.8
2015-11-06T04:31:49.039Z,96.5
2015-11-06T04:32:48.994Z,96.2
2015-11-06T04:33:48.934Z,96.1
2015-11-06T04:34:48.874Z,96.4
2015-11-06T04:35:48.831Z,96.6
2015-11-06T04:37:02.927Z,96.2
2015-11-06T04:37:48.726Z,96.3
2015-11-06T04:38:48.666Z,96.4
2015-11-06T04:39:48.856Z,96.8
2015-11-06T04:40:48.578Z,96.5
2015-11-06T04:41:48.549Z,96.5
2015-11-06T04:42:48.474Z,96.6
2015-11-06T04:43:48.414Z,96.8
2015-11-06T04:44:48.355Z,96.7
2015-11-06T04:45:48.310Z,96.8
2015-11-06T04:46:48.267Z,96.6
2015-11-06T04:47:48.207Z,96.6
2015-11-06T04:48:47.413Z,96.7
2015-11-06T04:49:47.368Z,96.8
2015-11-06T04:50:48.058Z,96.6
2015-11-06T04:51:47.999Z,96.5
2015-11-06T04:52:47.955Z,96.7
2015-11-06T04:53:47.895Z,96.4
2015-11-06T04:54:47.835Z,96.4
2015-11-06T04:55:47.791Z,96.7
2015-11-06T04:56:47.744Z,96.5
2015-11-06T04:57:47.777Z,96.6
2015-11-06T04:58:47.641Z,96.7
2015-11-06T04:59:47.580Z,96.9
2015-11-06T05:00:47.536Z,97.1
2015-11-06T05:01:47.476Z,96.7
2015-11-06T05:02:47.448Z,97
2015-11-06T05:03:47.372Z,97
2015-11-06T05:04:47.329Z,96.9
2015-11-06T05:05:47.268Z,96.9
2015-11-06T05:06:47.224Z,96.7
2015-11-06T05:07:47.165Z,96.9
2015-11-06T05:08:47.137Z,96.8
2015-11-06T05:09:47.060Z,96.7
2015-11-06T05:10:47.017Z,97.2
2015-11-06T05:11:46.956Z,96.9
2015-11-06T05:12:47.148Z,97.1
2015-11-06T05:13:46.868Z,97.2
2015-11-06T05:14:46.809Z,97.5
2015-11-06T05:15:46.780Z,97.2
2015-11-06T05:16:46.704Z,97
2015-11-06T05:17:46.660Z,97
2015-11-06T05:18:46.600Z,96.9
2015-11-06T05:19:46.604Z,96.8
2015-11-06T05:20:46.512Z,97
2015-11-06T05:21:46.452Z,96.8
2015-11-06T05:22:46.409Z,96.7
2015-11-06T05:23:46.333Z,96.5
2015-11-06T05:24:46.288Z,96.4
2015-11-06T05:25:46.244Z,95.9
2015-11-06T05:26:46.419Z,96.2
2015-11-06T05:27:46.141Z,96.2
2015-11-06T05:28:46.081Z,96.4
2015-11-06T05:29:46.052Z,96.3
2015-11-06T05:30:45.977Z,96.2
2015-11-06T05:31:45.933Z,96.5
2015-11-06T05:32:45.873Z,96.5
2015-11-06T05:33:45.829Z,96.1
2015-11-06T05:34:45.785Z,96.2
2015-11-06T05:35:45.725Z,96.2
2015-11-06T05:36:45.666Z,96.3
2015-11-06T05:37:45.622Z,96.7
2015-11-06T05:38:45.561Z,95.8
2015-11-06T05:39:45.533Z,95.9
2015-11-06T05:40:45.474Z,95.9
2015-11-06T05:41:45.413Z,95.4
2015-11-06T05:42:45.369Z,94.8
2015-11-06T05:43:45.325Z,95.2
2015-11-06T05:44:45.265Z,95.2
2015-11-06T05:45:45.206Z,95
2015-11-06T05:46:45.146Z,95.5
2015-11-06T05:47:45.102Z,95.8
2015-11-06T05:48:44.901Z,95.8
2015-11-06T05:49:44.998Z,95.5
2015-11-06T05:50:44.954Z,96.2
2015-11-06T05:51:44.909Z,96.6
2015-11-06T05:52:44.849Z,97.1
2015-11-06T05:53:44.790Z,97.6
2015-11-06T05:54:44.745Z,97
2015-11-06T05:55:44.686Z,96.1
2015-11-06T05:56:44.642Z,96
2015-11-06T05:57:44.598Z,96.5
2015-11-06T05:58:44.538Z,96.8
2015-11-06T05:59:44.479Z,96.9
2015-11-06T06:00:44.434Z,96.6
2015-11-06T06:01:44.390Z,96
2015-11-06T06:02:44.329Z,95.5
2015-11-06T06:03:44.286Z,95.6
2015-11-06T06:04:44.225Z,96
2015-11-06T06:05:44.417Z,95.7
2015-11-06T06:06:44.137Z,95.5
2015-11-06T06:07:44.078Z,95.3
2015-11-06T06:08:44.018Z,96
2015-11-06T06:09:43.974Z,96.6
2015-11-06T06:10:43.930Z,96.4
2015-11-06T06:11:43.869Z,95.8
2015-11-06T06:12:43.825Z,95.7
2015-11-06T06:13:43.766Z,95.9
2015-11-06T06:14:43.737Z,95.7
2015-11-06T06:15:43.659Z,95.9
2015-11-06T06:16:43.850Z,96.8
2015-11-06T06:17:43.571Z,96.5
2015-11-06T06:18:43.511Z,96.1
2015-11-06T06:19:43.467Z,96.2
2015-11-06T06:20:43.407Z,96.1
2015-11-06T06:21:43.363Z,96
2015-11-06T06:22:43.303Z,96.4
2015-11-06T06:23:43.244Z,96.3
2015-11-06T06:24:43.230Z,96.5
2015-11-06T06:25:43.172Z,96.9
2015-11-06T06:26:43.096Z,96.8
2015-11-06T06:27:43.052Z,97.2
2015-11-06T06:28:42.991Z,97.1
2015-11-06T06:29:42.963Z,97
2015-11-06T06:30:42.888Z,96.9
2015-11-06T06:31:42.844Z,96.6
2015-11-06T06:32:42.800Z,96.7
2015-11-06T06:33:42.740Z,96.6
2015-11-06T06:34:42.680Z,96.6
2015-11-06T06:35:42.635Z,96.7
2015-11-06T06:36:42.591Z,96.9
2015-11-06T06:37:42.532Z,96.8
2015-11-06T06:38:42.488Z,97
2015-11-06T06:39:42.444Z,97.5
2015-11-06T06:40:42.384Z,97.9
2015-11-06T06:41:42.324Z,98.3
2015-11-06T06:42:42.280Z,98.8
2015-11-06T06:43:42.220Z,99.1
2015-11-06T06:44:42.176Z,98
2015-11-06T06:45:42.116Z,97.9
2015-11-06T06:46:42.071Z,97.7
2015-11-06T06:47:42.012Z,97.9
2015-11-06T06:48:42.218Z,97.7
2015-11-06T06:49:41.940Z,97.5
2015-11-06T06:50:41.864Z,97.3
2015-11-06T06:51:41.821Z,97.9
2015-11-06T06:52:41.759Z,97.7
2015-11-06T06:53:41.716Z,97.4
2015-11-06T06:54:41.656Z,97.7
2015-11-06T06:55:41.612Z,97.6
2015-11-06T06:56:41.557Z,97.3
2015-11-06T06:57:41.529Z,97.3
2015-11-06T06:58:41.454Z,97.9
2015-11-06T06:59:41.408Z,98.4
2015-11-06T07:00:41.365Z,98.2
2015-11-06T07:01:41.305Z,98
2015-11-06T07:02:41.261Z,97.8
2015-11-06T07:03:41.201Z,97.3
2015-11-06T07:04:41.158Z,97
2015-11-06T07:05:41.128Z,96.5
2015-11-06T07:06:41.053Z,96.3
2015-11-06T07:07:41.008Z,96.5
2015-11-06T07:08:40.934Z,96.6
2015-11-06T07:09:40.905Z,96.5
2015-11-06T07:10:40.845Z,96.8
2015-11-06T07:11:40.802Z,97.7
2015-11-06T07:12:40.757Z,97.5
2015-11-06T07:13:40.697Z,98.2
2015-11-06T07:14:40.652Z,97.8
2015-11-06T07:15:40.594Z,97.9
2015-11-06T07:16:40.534Z,98
2015-11-06T07:17:40.489Z,97.6
2015-11-06T07:18:40.695Z,97.9
2015-11-06T07:19:40.385Z,97.8
2015-11-06T07:20:40.330Z,98.1
2015-11-06T07:21:40.271Z,97.9
2015-11-06T07:22:40.243Z,98.1
2015-11-06T07:23:40.180Z,99
2015-11-06T07:24:40.120Z,99.2
2015-11-06T07:25:40.076Z,98.4
2015-11-06T07:26:40.016Z,98.2
2015-11-06T07:27:39.971Z,98
2015-11-06T07:28:39.928Z,98.6
2015-11-06T07:29:39.884Z,97.7
2015-11-06T07:30:39.824Z,97.6
2015-11-06T07:31:39.765Z,97.4
2015-11-06T07:32:39.720Z,98.3
2015-11-06T07:33:39.659Z,98.8
2015-11-06T07:34:39.615Z,98.7
2015-11-06T07:35:39.572Z,99.4
2015-11-06T07:36:39.512Z,99.2
2015-11-06T07:37:39.452Z,99
2015-11-06T07:38:39.409Z,98.2
2015-11-06T07:39:39.598Z,98.1
2015-11-06T07:40:39.304Z,98
2015-11-06T07:41:39.245Z,97.8
2015-11-06T07:42:39.216Z,97.4
2015-11-06T07:43:39.161Z,97.1
2015-11-06T07:44:39.129Z,96.9
2015-11-06T07:45:39.413Z,96.7
2015-11-06T07:46:39.152Z,96.3
2015-11-06T07:47:38.952Z,96.1
2015-11-06T07:48:38.908Z,96
2015-11-06T07:49:39.068Z,95.9
2015-11-06T07:50:38.805Z,96.1
2015-11-06T07:51:38.744Z,95.7
2015-11-06T07:52:38.685Z,95.9
2015-11-06T07:53:38.657Z,95.6
2015-11-06T07:54:38.581Z,96.3
2015-11-06T07:55:38.537Z,96.2
2015-11-06T07:56:38.492Z,95.9
2015-11-06T07:57:38.433Z,96
2015-11-06T07:58:38.388Z,95.7
2015-11-06T07:59:38.329Z,95.5
2015-11-06T08:00:38.289Z,95.4
2015-11-06T08:01:38.244Z,95.4
2015-11-06T08:02:38.200Z,95.3
2015-11-06T08:03:38.155Z,95
2015-11-06T08:04:38.111Z,95.8
2015-11-06T08:05:38.271Z,96.3
2015-11-06T08:06:37.992Z,96.6
2015-11-06T08:07:37.932Z,96.1
2015-11-06T08:08:37.905Z,95.7
2015-11-06T08:09:37.844Z,95.4
2015-11-06T08:10:37.785Z,96.5
2015-11-06T08:11:37.740Z,97.4
2015-11-06T08:12:37.697Z,96
2015-11-06T08:13:37.636Z,96.1
2015-11-06T08:14:37.593Z,95.9
2015-11-06T08:15:37.549Z,96.8
2015-11-06T08:16:37.504Z,96.3
2015-11-06T08:17:37.460Z,95.8
2015-11-06T08:18:37.400Z,96.5
2015-11-06T08:19:37.341Z,95.9
2015-11-06T08:20:37.296Z,94.8
2015-11-06T08:21:37.236Z,94.4
2015-11-06T08:22:37.426Z,94.2
2015-11-06T08:23:37.163Z,94.2
2015-11-06T08:24:37.088Z,94.2
2015-11-06T08:25:37.279Z,94.2
2015-11-06T08:26:37.001Z,94.9
2015-11-06T08:27:36.925Z,94.5
2015-11-06T08:28:36.896Z,94.2
2015-11-06T08:29:36.836Z,93.4
2015-11-06T08:30:36.793Z,93.2
2015-11-06T08:31:36.732Z,93.3
2015-11-06T08:32:36.685Z,93
2015-11-06T08:33:36.625Z,93
2015-11-06T08:34:36.582Z,92.4
2015-11-06T08:35:36.522Z,92.5
2015-11-06T08:36:36.478Z,92.6
2015-11-06T08:37:36.434Z,92.5
2015-11-06T08:38:36.373Z,92.5
2015-11-06T08:39:36.329Z,93.5
2015-11-06T08:40:36.269Z,92.6
2015-11-06T08:41:36.225Z,92.4
2015-11-06T08:42:36.181Z,92.3
2015-11-06T08:43:36.122Z,92.1
2015-11-06T08:44:36.078Z,91.9
2015-11-06T08:45:35.877Z,92
2015-11-06T08:46:36.005Z,92
2015-11-06T08:47:35.913Z,92.2
2015-11-06T08:48:35.869Z,92.6
2015-11-06T08:49:36.060Z,92.6
2015-11-06T08:50:35.781Z,92.2
2015-11-06T08:51:35.722Z,92.4
2015-11-06T08:52:35.661Z,91.9
2015-11-06T08:53:35.617Z,92.3
2015-11-06T08:54:35.589Z,92.2
2015-11-06T08:55:35.513Z,92.3
2015-11-06T08:56:35.705Z,92.6
2015-11-06T08:57:35.410Z,92.4
2015-11-06T08:58:35.756Z,92.3
2015-11-06T08:59:34.587Z,91.9
2015-11-06T09:00:35.262Z,91.9
2015-11-06T09:01:35.218Z,92.1
2015-11-06T09:02:35.174Z,91.9
2015-11-06T09:03:35.130Z,92
2015-11-06T09:04:35.054Z,93.9
2015-11-06T09:05:35.010Z,93.1
2015-11-06T09:06:35.200Z,93.7
2015-11-06T09:07:34.905Z,92.2
2015-11-06T09:08:34.877Z,91.8
2015-11-06T09:09:35.052Z,91.6
2015-11-06T09:10:34.774Z,93.8
2015-11-06T09:11:34.713Z,93.6
2015-11-06T09:12:34.685Z,92.5
2015-11-06T09:13:34.626Z,92.6
2015-11-06T09:14:34.581Z,91.3
2015-11-06T09:15:34.521Z,91
2015-11-06T09:16:34.477Z,91
2015-11-06T09:17:34.433Z,90.6
2015-11-06T09:18:34.373Z,90.6
2015-11-06T09:19:34.563Z,90.4
2015-11-06T09:20:34.269Z,90.4
2015-11-06T09:21:34.069Z,90.6
2015-11-06T09:22:34.181Z,90.8
2015-11-06T09:23:34.106Z,90.9
2015-11-06T09:24:34.062Z,90.8
2015-11-06T09:25:34.033Z,90.9
2015-11-06T09:26:33.957Z,90.7
2015-11-06T09:27:33.914Z,90.6
2015-11-06T09:28:33.713Z,90.5
2015-11-06T09:29:33.826Z,90.4
2015-11-06T09:30:33.765Z,90.4
2015-11-06T09:31:33.580Z,90.4
2015-11-06T09:32:33.662Z,90.7
2015-11-06T09:33:33.618Z,90
2015-11-06T09:34:33.573Z,89.7
2015-11-06T09:35:33.513Z,89.7
2015-11-06T09:36:33.469Z,89.2
2015-11-06T09:37:33.409Z,88.8
2015-11-06T09:38:33.365Z,89.2
2015-11-06T09:39:33.150Z,89.3
2015-11-06T09:40:33.261Z,89.3
2015-11-06T09:41:33.217Z,88.7
2015-11-06T09:42:33.173Z,88.6
2015-11-06T09:43:33.113Z,88.7
2015-11-06T09:44:33.069Z,88.2
2015-11-06T09:45:33.006Z,88.5
2015-11-06T09:46:32.962Z,88.5
2015-11-06T09:47:32.903Z,88.1
2015-11-06T09:48:32.858Z,88.3
2015-11-06T09:49:32.799Z,88.4
2015-11-06T09:50:32.754Z,88.1
2015-11-06T09:51:32.711Z,88.1
2015-11-06T09:52:32.666Z,87.5
2015-11-06T09:53:32.621Z,88.2
2015-11-06T09:54:32.797Z,87.6
2015-11-06T09:55:32.502Z,87.8
2015-11-06T09:56:32.458Z,87.9
2015-11-06T09:57:32.414Z,87.7
2015-11-06T09:58:32.355Z,87.8
2015-11-06T09:59:32.310Z,86.8
2015-11-06T10:00:32.266Z,86.9
2015-11-06T10:01:32.207Z,87.1
2015-11-06T10:02:32.162Z,87.1
2015-11-06T10:03:32.118Z,86.9
2015-11-06T10:04:32.057Z,86.4
2015-11-06T10:05:32.249Z,86.3
2015-11-06T10:06:31.970Z,86.4
2015-11-06T10:07:32.145Z,86.5
2015-11-06T10:08:31.851Z,86.5
2015-11-06T10:09:31.807Z,86.1
2015-11-06T10:10:31.778Z,86
2015-11-06T10:11:31.718Z,86.1
2015-11-06T10:12:31.659Z,85.7
2015-11-06T10:13:31.614Z,86
2015-11-06T10:14:31.570Z,85.8
2015-11-06T10:15:31.525Z,85.9
2015-11-06T10:16:31.466Z,86.2
2015-11-06T10:17:31.406Z,86.3
2015-11-06T10:18:31.612Z,86.2
2015-11-06T10:19:31.318Z,86.3
2015-11-06T10:20:31.259Z,86.3
2015-11-06T10:21:31.214Z,85.5
2015-11-06T10:22:31.170Z,85.5
2015-11-06T10:23:31.109Z,85.3
2015-11-06T10:24:31.082Z,84.9
2015-11-06T10:25:31.006Z,84.8
2015-11-06T10:26:31.197Z,85.4
2015-11-06T10:27:30.918Z,85.3
2015-11-06T10:28:30.858Z,85.2
2015-11-06T10:29:30.814Z,84.6
2015-11-06T10:30:30.774Z,84.8
2015-11-06T10:31:30.699Z,85
2015-11-06T10:32:30.655Z,84.7
2015-11-06T10:33:30.611Z,84.5
2015-11-06T10:34:30.551Z,84.2
2015-11-06T10:35:30.522Z,84.8
2015-11-06T10:36:30.463Z,84.5
2015-11-06T10:37:30.403Z,84.7
2015-11-06T10:38:30.360Z,84.5
2015-11-06T10:39:30.315Z,84.6
2015-11-06T10:40:30.271Z,85.2
2015-11-06T10:41:30.210Z,85.1
2015-11-06T10:42:30.167Z,84.3
2015-11-06T10:43:30.107Z,84.4
2015-11-06T10:44:30.062Z,84.1
2015-11-06T10:45:30.018Z,84.1
2015-11-06T10:46:29.224Z,83.9
2015-11-06T10:47:29.915Z,83.6
2015-11-06T10:48:29.870Z,83.9
2015-11-06T10:49:29.810Z,84.2
2015-11-06T10:50:29.767Z,84.1
2015-11-06T10:51:29.723Z,83.9
2015-11-06T10:52:29.663Z,84.1
2015-11-06T10:53:29.853Z,84.3
2015-11-06T10:54:29.574Z,84.1
2015-11-06T10:55:29.515Z,83.8
2015-11-06T10:56:29.468Z,84.2
2015-11-06T10:57:29.409Z,83.7
2015-11-06T10:58:29.364Z,83.4
2015-11-06T10:59:29.320Z,83.7
2015-11-06T11:00:29.259Z,83.4
2015-11-06T11:01:29.215Z,83.3
2015-11-06T11:02:29.172Z,83.4
2015-11-06T11:03:29.111Z,83.6
2015-11-06T11:04:29.067Z,83.5
2015-11-06T11:05:29.023Z,83.8
2015-11-06T11:06:28.957Z,83.8
2015-11-06T11:07:28.913Z,84.1
2015-11-06T11:08:29.103Z,84.3
2015-11-06T11:09:28.809Z,84.6
2015-11-06T11:10:28.764Z,84.9
2015-11-06T11:11:28.737Z,85.2
2015-11-06T11:12:28.676Z,85.4
2015-11-06T11:13:28.617Z,85.4
2015-11-06T11:14:27.823Z,85.4
2015-11-06T11:15:28.528Z,85.5
2015-11-06T11:16:28.468Z,85.7
2015-11-06T11:17:28.424Z,85.4
2015-11-06T11:18:28.380Z,85.3
2015-11-06T11:19:28.336Z,85.7
2015-11-06T11:20:28.292Z,85.7
2015-11-06T11:21:28.231Z,85.7
2015-11-06T11:22:28.187Z,85.5
2015-11-06T11:23:28.129Z,85.8
2015-11-06T11:24:27.350Z,86.3
2015-11-06T11:25:28.039Z,85.5
2015-11-06T11:26:28.231Z,86.5
2015-11-06T11:27:27.936Z,86.3
2015-11-06T11:28:27.892Z,86.3
2015-11-06T11:29:27.848Z,87.8
2015-11-06T11:30:27.789Z,87.6
2015-11-06T11:31:27.744Z,87.5
2015-11-06T11:32:27.715Z,87.1
2015-11-06T11:33:27.655Z,87.3
2015-11-06T11:34:27.611Z,87.3
2015-11-06T11:35:27.552Z,88.3
2015-11-06T11:36:27.507Z,88.4
2015-11-06T11:37:27.463Z,88.9
2015-11-06T11:38:27.653Z,89.1
2015-11-06T11:39:27.359Z,88.9
2015-11-06T11:40:27.315Z,92.2
2015-11-06T11:41:27.271Z,92
2015-11-06T11:42:27.227Z,92.3
2015-11-06T11:43:27.166Z,92.1
2015-11-06T11:44:27.138Z,91.3
2015-11-06T11:45:27.079Z,91.6
2015-11-06T11:46:27.035Z,91.3
2015-11-06T11:47:26.975Z,90.6
2015-11-06T11:48:26.946Z,91.3
2015-11-06T11:49:26.886Z,92.7
2015-11-06T11:50:26.827Z,92.9
2015-11-06T11:51:26.782Z,92
2015-11-06T11:52:26.738Z,91.2
2015-11-06T11:53:26.929Z,92
2015-11-06T11:54:26.649Z,91.6
2015-11-06T11:55:26.591Z,91.4
2015-11-06T11:56:26.546Z,92.2
2015-11-06T11:57:26.487Z,92.3
2015-11-06T11:58:26.458Z,92.3
2015-11-06T11:59:26.398Z,93
2015-11-06T12:00:26.354Z,92.8
2015-11-06T12:01:26.310Z,92
2015-11-06T12:02:26.265Z,91.2
2015-11-06T12:03:26.206Z,91.3
2015-11-06T12:04:26.162Z,91.2
2015-11-06T12:05:26.118Z,91.1
2015-11-06T12:06:26.073Z,91.6
2015-11-06T12:07:26.029Z,91
2015-11-06T12:08:25.967Z,91.5
2015-11-06T12:09:25.923Z,91.4
2015-11-06T12:10:25.863Z,91.6
2015-11-06T12:11:25.818Z,91.7
2015-11-06T12:12:25.759Z,91.8
2015-11-06T12:13:25.715Z,91.4
2015-11-06T12:14:25.671Z,91.2
2015-11-06T12:15:25.845Z,90.8
2015-11-06T12:16:25.582Z,90.8
2015-11-06T12:17:25.539Z,90.9
2015-11-06T12:18:25.478Z,90.8
2015-11-06T12:19:25.669Z,91.4
2015-11-06T12:20:25.389Z,91.4
2015-11-06T12:21:25.331Z,91.4
2015-11-06T12:22:25.286Z,91.4
2015-11-06T12:23:25.226Z,91.4
2015-11-06T12:24:24.448Z,91.8
2015-11-06T12:25:25.139Z,91.6
2015-11-06T12:26:25.078Z,91.8
2015-11-06T12:27:25.034Z,91.5
2015-11-06T12:28:24.990Z,91.7
2015-11-06T12:29:24.947Z,91.3
2015-11-06T12:30:25.136Z,91.2
2015-11-06T12:31:24.857Z,91
2015-11-06T12:32:24.797Z,91.2
2015-11-06T12:33:24.753Z,91.4
2015-11-06T12:34:24.710Z,91.2
2015-11-06T12:35:24.650Z,91.1
2015-11-06T12:36:24.605Z,91
2015-11-06T12:37:24.546Z,91.2
2015-11-06T12:38:24.502Z,90.9
2015-11-06T12:39:24.457Z,91.3
2015-11-06T12:40:24.397Z,91.8
2015-11-06T12:41:24.354Z,91.2
2015-11-06T12:42:24.544Z,91.3
2015-11-06T12:43:24.250Z,91.3
2015-11-06T12:44:24.205Z,91.6
2015-11-06T12:45:24.177Z,91.3
2015-11-06T12:46:24.117Z,91.9
2015-11-06T12:47:24.120Z,91.7
2015-11-06T12:48:23.279Z,91.4
2015-11-06T12:49:23.969Z,91.7
2015-11-06T12:50:23.925Z,91.7
2015-11-06T12:51:23.881Z,91.9
2015-11-06T12:52:23.837Z,92
2015-11-06T12:53:23.777Z,91.7
2015-11-06T12:54:23.717Z,91.8
2015-11-06T12:55:23.673Z,93
2015-11-06T12:56:23.629Z,93.1
2015-11-06T12:57:23.584Z,93.5
2015-11-06T12:58:23.525Z,94.1
2015-11-06T12:59:23.481Z,93.8
2015-11-06T13:00:23.437Z,93.3
2015-11-06T13:01:23.367Z,92.9
2015-11-06T13:02:23.325Z,92.6
2015-11-06T13:03:23.267Z,92.7
2015-11-06T13:04:23.194Z,92.6
2015-11-06T13:05:22.979Z,92.4
2015-11-06T13:06:23.067Z,93.2
2015-11-06T13:07:23.018Z,94.6
2015-11-06T13:08:22.969Z,93.4
2015-11-06T13:09:22.920Z,93.7
2015-11-06T13:10:22.871Z,92.8
2015-11-06T13:11:22.808Z,92.9
2015-11-06T13:12:22.778Z,93.3
2015-11-06T13:13:22.716Z,93.2
2015-11-06T13:14:22.655Z,94.2
2015-11-06T13:15:22.609Z,93.6
2015-11-06T13:16:22.563Z,93.6
2015-11-06T13:17:22.504Z,93.2
2015-11-06T13:18:22.459Z,94.3
2015-11-06T13:19:22.412Z,93.3
2015-11-06T13:20:22.602Z,92.8
2015-11-06T13:21:22.308Z,92.6
2015-11-06T13:22:22.277Z,92.3